TAF and METAR

METAR for Al Ain International Airport

OMAL 290200Z 16011KT CAVOK 29/15 Q1008 NOSIG
Report created 29. sep 04:00
wind 11 knots from SSE (160°) Clear sky Temperature 29° with dewpoint at 15° (Humidity 42.63%) Pressure 1008 hPa no significant weather change expected the next couple of hours

TAF for Al Ain International Airport

TAF OMAL 282300Z 2900/3006 08006KT CAVOK BECMG 2900/2902 14012KT BECMG 2910/2912 26008KT BECMG 2914/2916 36008KT BECMG 2918/2920 08006KT
Report created 29. sep 01:00

between 29. sep 02:00 - 30. sep 08:00

wind 6 knots from E (080°) Clear sky

becoming between 29. sep 02:00 - 29. sep 04:00

wind 12 knots from SE (140°)

becoming between 29. sep 12:00 - 29. sep 14:00

wind 8 knots from W (260°)

becoming between 29. sep 16:00 - 29. sep 18:00

wind 8 knots from N (360°)

becoming between 29. sep 20:00 - 29. sep 22:00

wind 6 knots from E (080°)